sensor_id;sensor_type;location;lat;lon;timestamp;P1;durP1;ratioP1;P2;durP2;ratioP2
67344;SDS011;54230;52.402;6.276;2023-06-26T00:00:00;12.5;;;9.3;;
67344;SDS011;54230;52.402;6.276;2023-06-26T00:05:00;11.4;;;9.0;;
67344;SDS011;54230;52.402;6.276;2023-06-26T00:10:00;11.1;;;8.5;;
67344;SDS011;54230;52.402;6.276;2023-06-26T00:15:00;13.6;;;9.3;;
67344;SDS011;54230;52.402;6.276;2023-06-26T00:20:00;11.8;;;9.2;;
67344;SDS011;54230;52.402;6.276;2023-06-26T00:25:00;10.5;;;8.2;;
67344;SDS011;54230;52.402;6.276;2023-06-26T00:30:00;12.4;;;9.3;;
67344;SDS011;54230;52.402;6.276;2023-06-26T00:35:00;14.9;;;10.2;;
67344;SDS011;54230;52.402;6.276;2023-06-26T00:40:00;13.2;;;10.0;;
67344;SDS011;54230;52.402;6.276;2023-06-26T00:45:00;13.6;;;10.7;;
67344;SDS011;54230;52.402;6.276;2023-06-26T00:50:00;17.6;;;10.1;;
67344;SDS011;54230;52.402;6.276;2023-06-26T00:55:00;14.2;;;9.4;;
67344;SDS011;54230;52.402;6.276;2023-06-26T01:00:00;13.1;;;10.2;;
67344;SDS011;54230;52.402;6.276;2023-06-26T01:05:00;13.3;;;9.2;;
67344;SDS011;54230;52.402;6.276;2023-06-26T01:10:00;13.3;;;9.9;;
67344;SDS011;54230;52.402;6.276;2023-06-26T01:15:00;13.6;;;10.1;;
67344;SDS011;54230;52.402;6.276;2023-06-26T01:20:00;12.5;;;9.5;;
67344;SDS011;54230;52.402;6.276;2023-06-26T01:25:03;13.7;;;9.8;;
67344;SDS011;54230;52.402;6.276;2023-06-26T01:30:00;12.5;;;9.8;;
67344;SDS011;54230;52.402;6.276;2023-06-26T01:35:00;13.5;;;9.9;;
67344;SDS011;54230;52.402;6.276;2023-06-26T01:40:00;13.5;;;10.7;;
67344;SDS011;54230;52.402;6.276;2023-06-26T01:45:00;12.3;;;9.5;;
67344;SDS011;54230;52.402;6.276;2023-06-26T01:50:02;12.7;;;9.9;;
67344;SDS011;54230;52.402;6.276;2023-06-26T01:55:09;13.5;;;10.1;;
67344;SDS011;54230;52.402;6.276;2023-06-26T02:00:00;12.8;;;10.0;;
67344;SDS011;54230;52.402;6.276;2023-06-26T02:05:00;14.2;;;10.9;;
67344;SDS011;54230;52.402;6.276;2023-06-26T02:10:00;13.6;;;10.4;;
67344;SDS011;54230;52.402;6.276;2023-06-26T02:15:00;15.6;;;11.1;;
67344;SDS011;54230;52.402;6.276;2023-06-26T02:20:00;14.8;;;11.5;;
67344;SDS011;54230;52.402;6.276;2023-06-26T02:25:00;15.1;;;11.6;;
67344;SDS011;54230;52.402;6.276;2023-06-26T02:30:00;15.3;;;11.5;;
67344;SDS011;54230;52.402;6.276;2023-06-26T02:35:00;15.1;;;11.6;;
67344;SDS011;54230;52.402;6.276;2023-06-26T02:40:00;16.5;;;11.7;;
67344;SDS011;54230;52.402;6.276;2023-06-26T02:45:00;17.0;;;11.1;;
67344;SDS011;54230;52.402;6.276;2023-06-26T02:50:00;16.7;;;12.0;;
67344;SDS011;54230;52.402;6.276;2023-06-26T02:55:00;16.3;;;12.3;;
67344;SDS011;54230;52.402;6.276;2023-06-26T03:00:00;15.2;;;11.6;;
67344;SDS011;54230;52.402;6.276;2023-06-26T03:05:00;15.5;;;12.4;;
67344;SDS011;54230;52.402;6.276;2023-06-26T03:10:00;16.9;;;12.0;;
67344;SDS011;54230;52.402;6.276;2023-06-26T03:15:00;16.3;;;12.5;;
67344;SDS011;54230;52.402;6.276;2023-06-26T03:20:00;16.2;;;11.7;;
67344;SDS011;54230;52.402;6.276;2023-06-26T03:25:01;16.2;;;12.3;;
67344;SDS011;54230;52.402;6.276;2023-06-26T03:30:00;13.9;;;11.5;;
67344;SDS011;54230;52.402;6.276;2023-06-26T03:35:00;14.5;;;11.6;;
67344;SDS011;54230;52.402;6.276;2023-06-26T03:40:00;15.4;;;10.9;;
67344;SDS011;54230;52.402;6.276;2023-06-26T03:45:00;13.9;;;10.1;;
67344;SDS011;54230;52.402;6.276;2023-06-26T03:50:00;15.1;;;10.8;;
67344;SDS011;54230;52.402;6.276;2023-06-26T03:55:00;15.6;;;10.7;;
67344;SDS011;54230;52.402;6.276;2023-06-26T04:00:00;16.2;;;10.2;;
67344;SDS011;54230;52.402;6.276;2023-06-26T04:05:00;13.1;;;9.4;;
67344;SDS011;54230;52.402;6.276;2023-06-26T04:10:00;13.7;;;8.6;;
67344;SDS011;54230;52.402;6.276;2023-06-26T04:15:00;10.9;;;6.9;;
67344;SDS011;54230;52.402;6.276;2023-06-26T04:20:00;10.2;;;6.0;;
67344;SDS011;54230;52.402;6.276;2023-06-26T04:25:01;9.8;;;6.1;;
67344;SDS011;54230;52.402;6.276;2023-06-26T04:30:00;12.9;;;6.2;;
67344;SDS011;54230;52.402;6.276;2023-06-26T04:35:00;11.4;;;6.2;;
67344;SDS011;54230;52.402;6.276;2023-06-26T04:40:00;10.7;;;5.9;;
67344;SDS011;54230;52.402;6.276;2023-06-26T04:45:00;10.6;;;5.9;;
67344;SDS011;54230;52.402;6.276;2023-06-26T04:50:00;12.9;;;5.8;;
67344;SDS011;54230;52.402;6.276;2023-06-26T04:55:00;11.3;;;5.5;;
67344;SDS011;54230;52.402;6.276;2023-06-26T05:00:00;12.9;;;5.1;;
67344;SDS011;54230;52.402;6.276;2023-06-26T05:05:00;13.3;;;5.1;;
67344;SDS011;54230;52.402;6.276;2023-06-26T05:10:00;10.8;;;5.2;;
67344;SDS011;54230;52.402;6.276;2023-06-26T05:15:00;12.2;;;4.9;;
67344;SDS011;54230;52.402;6.276;2023-06-26T05:20:00;13.6;;;5.2;;
67344;SDS011;54230;52.402;6.276;2023-06-26T05:25:00;14.1;;;5.5;;
67344;SDS011;54230;52.402;6.276;2023-06-26T05:30:00;15.5;;;5.2;;
67344;SDS011;54230;52.402;6.276;2023-06-26T05:35:00;15.5;;;6.0;;
67344;SDS011;54230;52.402;6.276;2023-06-26T05:40:00;16.9;;;5.2;;
67344;SDS011;54230;52.402;6.276;2023-06-26T05:45:00;12.4;;;4.7;;
67344;SDS011;54230;52.402;6.276;2023-06-26T05:50:00;13.3;;;4.2;;
67344;SDS011;54230;52.402;6.276;2023-06-26T05:55:00;9.3;;;4.4;;
67344;SDS011;54230;52.402;6.276;2023-06-26T06:00:00;11.5;;;4.4;;
67344;SDS011;54230;52.402;6.276;2023-06-26T06:05:00;12.2;;;4.3;;
67344;SDS011;54230;52.402;6.276;2023-06-26T06:10:00;8.0;;;4.0;;
67344;SDS011;54230;52.402;6.276;2023-06-26T06:15:00;7.1;;;3.6;;
67344;SDS011;54230;52.402;6.276;2023-06-26T06:20:00;8.6;;;3.6;;
67344;SDS011;54230;52.402;6.276;2023-06-26T06:25:00;8.5;;;3.6;;
67344;SDS011;54230;52.402;6.276;2023-06-26T06:30:00;10.0;;;3.6;;
67344;SDS011;54230;52.402;6.276;2023-06-26T06:35:00;6.3;;;2.6;;
67344;SDS011;54230;52.402;6.276;2023-06-26T06:40:00;5.5;;;2.4;;
67344;SDS011;54230;52.402;6.276;2023-06-26T06:45:01;6.6;;;2.8;;
67344;SDS011;54230;52.402;6.276;2023-06-26T06:50:00;7.7;;;2.7;;
67344;SDS011;54230;52.402;6.276;2023-06-26T06:55:00;5.2;;;2.2;;
67344;SDS011;54230;52.402;6.276;2023-06-26T07:00:00;5.0;;;2.1;;
67344;SDS011;54230;52.402;6.276;2023-06-26T07:05:00;5.3;;;2.1;;
67344;SDS011;54230;52.402;6.276;2023-06-26T07:10:01;4.3;;;2.0;;
67344;SDS011;54230;52.402;6.276;2023-06-26T07:15:00;6.2;;;1.9;;
67344;SDS011;54230;52.402;6.276;2023-06-26T07:20:00;5.3;;;2.2;;
67344;SDS011;54230;52.402;6.276;2023-06-26T07:25:00;5.2;;;2.2;;
67344;SDS011;54230;52.402;6.276;2023-06-26T07:30:00;4.1;;;2.1;;
67344;SDS011;54230;52.402;6.276;2023-06-26T07:35:00;4.5;;;2.1;;
67344;SDS011;54230;52.402;6.276;2023-06-26T07:40:00;4.5;;;2.1;;
67344;SDS011;54230;52.402;6.276;2023-06-26T07:45:00;5.6;;;2.1;;
67344;SDS011;54230;52.402;6.276;2023-06-26T07:50:00;5.4;;;2.2;;
67344;SDS011;54230;52.402;6.276;2023-06-26T07:55:00;7.7;;;2.4;;
67344;SDS011;54230;52.402;6.276;2023-06-26T08:00:00;5.9;;;2.5;;
67344;SDS011;54230;52.402;6.276;2023-06-26T08:05:00;6.2;;;2.5;;
67344;SDS011;54230;52.402;6.276;2023-06-26T08:10:00;6.3;;;2.3;;
67344;SDS011;54230;52.402;6.276;2023-06-26T08:15:00;5.5;;;2.3;;
67344;SDS011;54230;52.402;6.276;2023-06-26T08:20:00;5.5;;;2.4;;
67344;SDS011;54230;52.402;6.276;2023-06-26T08:25:00;4.9;;;2.3;;
67344;SDS011;54230;52.402;6.276;2023-06-26T08:30:00;5.5;;;2.3;;
67344;SDS011;54230;52.402;6.276;2023-06-26T08:35:00;5.5;;;2.5;;
67344;SDS011;54230;52.402;6.276;2023-06-26T08:40:00;6.1;;;2.7;;
67344;SDS011;54230;52.402;6.276;2023-06-26T08:45:00;5.5;;;2.4;;
67344;SDS011;54230;52.402;6.276;2023-06-26T08:50:01;6.5;;;2.4;;
67344;SDS011;54230;52.402;6.276;2023-06-26T08:55:00;8.2;;;2.7;;
67344;SDS011;54230;52.402;6.276;2023-06-26T09:00:00;6.2;;;2.9;;
67344;SDS011;54230;52.402;6.276;2023-06-26T09:05:00;6.9;;;2.9;;
67344;SDS011;54230;52.402;6.276;2023-06-26T09:10:00;8.9;;;3.1;;
67344;SDS011;54230;52.402;6.276;2023-06-26T09:15:00;6.2;;;3.2;;
67344;SDS011;54230;52.402;6.276;2023-06-26T09:20:00;7.0;;;3.3;;
67344;SDS011;54230;52.402;6.276;2023-06-26T09:25:00;7.6;;;3.0;;
67344;SDS011;54230;52.402;6.276;2023-06-26T09:30:00;7.3;;;3.1;;
67344;SDS011;54230;52.402;6.276;2023-06-26T09:35:00;6.6;;;3.0;;
67344;SDS011;54230;52.402;6.276;2023-06-26T09:40:00;8.3;;;2.9;;
67344;SDS011;54230;52.402;6.276;2023-06-26T09:45:00;6.7;;;3.1;;
67344;SDS011;54230;52.402;6.276;2023-06-26T09:50:01;6.9;;;2.8;;
67344;SDS011;54230;52.402;6.276;2023-06-26T09:55:08;5.4;;;2.9;;
67344;SDS011;54230;52.402;6.276;2023-06-26T10:00:00;7.0;;;3.0;;
67344;SDS011;54230;52.402;6.276;2023-06-26T10:05:00;5.4;;;2.8;;
67344;SDS011;54230;52.402;6.276;2023-06-26T10:10:00;7.2;;;2.9;;
67344;SDS011;54230;52.402;6.276;2023-06-26T10:15:00;5.8;;;2.8;;
67344;SDS011;54230;52.402;6.276;2023-06-26T10:20:01;6.9;;;2.6;;
67344;SDS011;54230;52.402;6.276;2023-06-26T10:25:00;8.4;;;2.8;;
67344;SDS011;54230;52.402;6.276;2023-06-26T10:30:00;6.8;;;2.4;;
67344;SDS011;54230;52.402;6.276;2023-06-26T10:35:00;8.2;;;2.6;;
67344;SDS011;54230;52.402;6.276;2023-06-26T10:40:00;6.6;;;2.5;;
67344;SDS011;54230;52.402;6.276;2023-06-26T10:45:08;5.4;;;2.2;;
67344;SDS011;54230;52.402;6.276;2023-06-26T10:55:00;4.6;;;2.1;;
67344;SDS011;54230;52.402;6.276;2023-06-26T11:05:00;5.1;;;2.3;;
67344;SDS011;54230;52.402;6.276;2023-06-26T11:10:00;5.6;;;2.2;;
67344;SDS011;54230;52.402;6.276;2023-06-26T11:15:00;6.1;;;2.2;;
67344;SDS011;54230;52.402;6.276;2023-06-26T11:20:00;4.2;;;1.9;;
67344;SDS011;54230;52.402;6.276;2023-06-26T11:25:00;4.1;;;1.7;;
67344;SDS011;54230;52.402;6.276;2023-06-26T11:30:00;4.1;;;1.6;;
67344;SDS011;54230;52.402;6.276;2023-06-26T11:35:00;6.1;;;1.9;;
67344;SDS011;54230;52.402;6.276;2023-06-26T11:40:05;5.6;;;2.3;;
67344;SDS011;54230;52.402;6.276;2023-06-26T11:45:00;4.2;;;1.6;;
67344;SDS011;54230;52.402;6.276;2023-06-26T11:50:01;5.2;;;1.7;;
67344;SDS011;54230;52.402;6.276;2023-06-26T11:55:00;4.9;;;1.8;;
67344;SDS011;54230;52.402;6.276;2023-06-26T12:00:09;7.7;;;1.8;;
67344;SDS011;54230;52.402;6.276;2023-06-26T12:05:00;3.3;;;1.4;;
67344;SDS011;54230;52.402;6.276;2023-06-26T12:10:00;4.4;;;1.6;;
67344;SDS011;54230;52.402;6.276;2023-06-26T12:15:00;5.3;;;1.7;;
67344;SDS011;54230;52.402;6.276;2023-06-26T12:20:00;5.8;;;1.7;;
67344;SDS011;54230;52.402;6.276;2023-06-26T12:25:00;5.0;;;1.8;;
67344;SDS011;54230;52.402;6.276;2023-06-26T12:30:00;5.0;;;1.8;;
67344;SDS011;54230;52.402;6.276;2023-06-26T12:35:00;5.3;;;1.5;;
67344;SDS011;54230;52.402;6.276;2023-06-26T12:40:00;6.4;;;1.8;;
67344;SDS011;54230;52.402;6.276;2023-06-26T12:45:09;4.8;;;1.6;;
67344;SDS011;54230;52.402;6.276;2023-06-26T12:50:04;4.4;;;1.7;;
67344;SDS011;54230;52.402;6.276;2023-06-26T12:55:00;4.1;;;1.6;;
67344;SDS011;54230;52.402;6.276;2023-06-26T13:00:00;4.5;;;1.5;;
67344;SDS011;54230;52.402;6.276;2023-06-26T13:05:00;4.3;;;1.3;;
67344;SDS011;54230;52.402;6.276;2023-06-26T13:10:00;5.4;;;1.5;;
67344;SDS011;54230;52.402;6.276;2023-06-26T13:15:00;3.3;;;1.5;;
67344;SDS011;54230;52.402;6.276;2023-06-26T13:20:00;4.1;;;1.4;;
67344;SDS011;54230;52.402;6.276;2023-06-26T13:25:00;4.3;;;1.3;;
67344;SDS011;54230;52.402;6.276;2023-06-26T13:30:00;4.7;;;1.5;;
67344;SDS011;54230;52.402;6.276;2023-06-26T13:35:00;5.8;;;1.7;;
67344;SDS011;54230;52.402;6.276;2023-06-26T13:40:00;6.1;;;1.5;;
67344;SDS011;54230;52.402;6.276;2023-06-26T13:45:00;5.5;;;1.6;;
67344;SDS011;54230;52.402;6.276;2023-06-26T13:50:00;3.0;;;1.3;;
67344;SDS011;54230;52.402;6.276;2023-06-26T13:55:00;4.1;;;1.4;;
67344;SDS011;54230;52.402;6.276;2023-06-26T14:00:00;3.8;;;1.5;;
67344;SDS011;54230;52.402;6.276;2023-06-26T14:05:00;4.9;;;1.5;;
67344;SDS011;54230;52.402;6.276;2023-06-26T14:10:00;4.9;;;1.6;;
67344;SDS011;54230;52.402;6.276;2023-06-26T14:15:00;4.5;;;1.6;;
67344;SDS011;54230;52.402;6.276;2023-06-26T14:20:00;6.2;;;1.6;;
67344;SDS011;54230;52.402;6.276;2023-06-26T14:25:00;3.9;;;1.6;;
67344;SDS011;54230;52.402;6.276;2023-06-26T14:30:00;5.8;;;1.6;;
67344;SDS011;54230;52.402;6.276;2023-06-26T14:35:00;3.9;;;1.6;;
67344;SDS011;54230;52.402;6.276;2023-06-26T14:40:00;5.0;;;1.5;;
67344;SDS011;54230;52.402;6.276;2023-06-26T14:45:00;4.4;;;1.6;;
67344;SDS011;54230;52.402;6.276;2023-06-26T14:50:00;3.7;;;1.4;;
67344;SDS011;54230;52.402;6.276;2023-06-26T14:55:00;5.4;;;1.5;;
67344;SDS011;54230;52.402;6.276;2023-06-26T15:00:00;3.0;;;1.5;;
67344;SDS011;54230;52.402;6.276;2023-06-26T15:05:00;3.5;;;1.4;;
67344;SDS011;54230;52.402;6.276;2023-06-26T15:10:00;3.4;;;1.3;;
67344;SDS011;54230;52.402;6.276;2023-06-26T15:15:00;2.5;;;1.2;;
67344;SDS011;54230;52.402;6.276;2023-06-26T15:20:00;5.2;;;1.5;;
67344;SDS011;54230;52.402;6.276;2023-06-26T15:25:00;4.8;;;1.4;;
67344;SDS011;54230;52.402;6.276;2023-06-26T15:30:00;3.2;;;1.3;;
67344;SDS011;54230;52.402;6.276;2023-06-26T15:35:00;3.3;;;1.3;;
67344;SDS011;54230;52.402;6.276;2023-06-26T15:40:00;6.0;;;1.7;;
67344;SDS011;54230;52.402;6.276;2023-06-26T15:45:00;3.3;;;1.3;;
67344;SDS011;54230;52.402;6.276;2023-06-26T15:50:00;4.1;;;1.3;;
67344;SDS011;54230;52.402;6.276;2023-06-26T15:55:00;5.1;;;1.6;;
67344;SDS011;54230;52.402;6.276;2023-06-26T16:00:00;3.8;;;1.4;;
67344;SDS011;54230;52.402;6.276;2023-06-26T16:05:00;2.6;;;1.3;;
67344;SDS011;54230;52.402;6.276;2023-06-26T16:10:00;4.5;;;1.5;;
67344;SDS011;54230;52.402;6.276;2023-06-26T16:15:00;4.2;;;1.6;;
67344;SDS011;54230;52.402;6.276;2023-06-26T16:20:00;3.8;;;1.4;;
67344;SDS011;54230;52.402;6.276;2023-06-26T16:25:00;4.7;;;1.6;;
67344;SDS011;54230;52.402;6.276;2023-06-26T16:30:00;4.1;;;1.5;;
67344;SDS011;54230;52.402;6.276;2023-06-26T16:35:00;3.4;;;1.5;;
67344;SDS011;54230;52.402;6.276;2023-06-26T16:40:00;5.4;;;1.8;;
67344;SDS011;54230;52.402;6.276;2023-06-26T16:45:00;5.3;;;1.7;;
67344;SDS011;54230;52.402;6.276;2023-06-26T16:50:00;4.8;;;1.8;;
67344;SDS011;54230;52.402;6.276;2023-06-26T16:55:00;4.1;;;1.6;;
67344;SDS011;54230;52.402;6.276;2023-06-26T17:00:00;3.9;;;1.4;;
67344;SDS011;54230;52.402;6.276;2023-06-26T17:05:00;4.2;;;1.4;;
67344;SDS011;54230;52.402;6.276;2023-06-26T17:10:00;3.9;;;1.5;;
67344;SDS011;54230;52.402;6.276;2023-06-26T17:15:00;3.8;;;1.6;;
67344;SDS011;54230;52.402;6.276;2023-06-26T17:20:00;6.1;;;1.7;;
67344;SDS011;54230;52.402;6.276;2023-06-26T17:25:00;4.0;;;1.6;;
67344;SDS011;54230;52.402;6.276;2023-06-26T17:30:00;3.4;;;1.6;;
67344;SDS011;54230;52.402;6.276;2023-06-26T17:35:00;5.7;;;1.6;;
67344;SDS011;54230;52.402;6.276;2023-06-26T17:40:00;3.9;;;1.7;;
67344;SDS011;54230;52.402;6.276;2023-06-26T17:45:00;5.4;;;1.9;;
67344;SDS011;54230;52.402;6.276;2023-06-26T17:50:00;5.8;;;1.6;;
67344;SDS011;54230;52.402;6.276;2023-06-26T17:55:00;6.0;;;1.7;;
67344;SDS011;54230;52.402;6.276;2023-06-26T18:00:00;4.5;;;1.5;;
67344;SDS011;54230;52.402;6.276;2023-06-26T18:05:00;4.0;;;1.4;;
67344;SDS011;54230;52.402;6.276;2023-06-26T18:10:00;5.5;;;1.6;;
67344;SDS011;54230;52.402;6.276;2023-06-26T18:15:00;5.1;;;1.5;;
67344;SDS011;54230;52.402;6.276;2023-06-26T18:20:00;7.0;;;1.5;;
67344;SDS011;54230;52.402;6.276;2023-06-26T18:25:00;4.7;;;1.6;;
67344;SDS011;54230;52.402;6.276;2023-06-26T18:30:00;4.3;;;1.3;;
67344;SDS011;54230;52.402;6.276;2023-06-26T18:35:00;3.3;;;1.5;;
67344;SDS011;54230;52.402;6.276;2023-06-26T18:40:00;4.8;;;1.6;;
67344;SDS011;54230;52.402;6.276;2023-06-26T18:45:00;5.0;;;1.6;;
67344;SDS011;54230;52.402;6.276;2023-06-26T18:50:00;4.3;;;1.5;;
67344;SDS011;54230;52.402;6.276;2023-06-26T18:55:00;5.4;;;1.5;;
67344;SDS011;54230;52.402;6.276;2023-06-26T19:00:00;4.2;;;1.5;;
67344;SDS011;54230;52.402;6.276;2023-06-26T19:05:00;6.5;;;1.5;;
67344;SDS011;54230;52.402;6.276;2023-06-26T19:10:00;5.2;;;1.6;;
67344;SDS011;54230;52.402;6.276;2023-06-26T19:15:00;4.7;;;1.6;;
67344;SDS011;54230;52.402;6.276;2023-06-26T19:20:00;4.2;;;1.5;;
67344;SDS011;54230;52.402;6.276;2023-06-26T19:25:00;3.5;;;1.5;;
67344;SDS011;54230;52.402;6.276;2023-06-26T19:30:00;4.8;;;1.5;;
67344;SDS011;54230;52.402;6.276;2023-06-26T19:35:00;4.6;;;1.4;;
67344;SDS011;54230;52.402;6.276;2023-06-26T19:40:00;5.6;;;1.7;;
67344;SDS011;54230;52.402;6.276;2023-06-26T19:45:00;4.1;;;1.5;;
67344;SDS011;54230;52.402;6.276;2023-06-26T19:50:00;5.9;;;1.6;;
67344;SDS011;54230;52.402;6.276;2023-06-26T19:55:00;4.7;;;1.5;;
67344;SDS011;54230;52.402;6.276;2023-06-26T20:00:00;5.4;;;1.6;;
67344;SDS011;54230;52.402;6.276;2023-06-26T20:05:01;4.9;;;1.7;;
67344;SDS011;54230;52.402;6.276;2023-06-26T20:10:00;6.0;;;1.7;;
67344;SDS011;54230;52.402;6.276;2023-06-26T20:15:00;6.1;;;1.8;;
67344;SDS011;54230;52.402;6.276;2023-06-26T20:20:00;6.4;;;1.4;;
67344;SDS011;54230;52.402;6.276;2023-06-26T20:25:00;5.0;;;1.7;;
67344;SDS011;54230;52.402;6.276;2023-06-26T20:30:00;4.8;;;1.9;;
67344;SDS011;54230;52.402;6.276;2023-06-26T20:35:00;4.1;;;1.6;;
67344;SDS011;54230;52.402;6.276;2023-06-26T20:40:00;6.6;;;1.8;;
67344;SDS011;54230;52.402;6.276;2023-06-26T20:45:00;5.5;;;1.7;;
67344;SDS011;54230;52.402;6.276;2023-06-26T20:50:00;6.2;;;1.6;;
67344;SDS011;54230;52.402;6.276;2023-06-26T20:55:00;4.9;;;1.9;;
67344;SDS011;54230;52.402;6.276;2023-06-26T21:00:00;4.6;;;1.7;;
67344;SDS011;54230;52.402;6.276;2023-06-26T21:05:00;6.3;;;1.8;;
67344;SDS011;54230;52.402;6.276;2023-06-26T21:10:00;3.8;;;1.6;;
67344;SDS011;54230;52.402;6.276;2023-06-26T21:15:00;8.5;;;1.9;;
67344;SDS011;54230;52.402;6.276;2023-06-26T21:20:00;5.9;;;1.7;;
67344;SDS011;54230;52.402;6.276;2023-06-26T21:25:00;4.4;;;1.9;;
67344;SDS011;54230;52.402;6.276;2023-06-26T21:30:00;5.5;;;1.7;;
67344;SDS011;54230;52.402;6.276;2023-06-26T21:35:00;5.9;;;1.8;;
67344;SDS011;54230;52.402;6.276;2023-06-26T21:40:00;6.6;;;1.9;;
67344;SDS011;54230;52.402;6.276;2023-06-26T21:45:00;4.5;;;1.6;;
67344;SDS011;54230;52.402;6.276;2023-06-26T21:50:00;5.2;;;2.0;;
67344;SDS011;54230;52.402;6.276;2023-06-26T21:55:00;6.5;;;2.1;;
67344;SDS011;54230;52.402;6.276;2023-06-26T22:00:00;5.1;;;2.0;;
67344;SDS011;54230;52.402;6.276;2023-06-26T22:05:00;6.1;;;2.2;;
67344;SDS011;54230;52.402;6.276;2023-06-26T22:10:00;6.4;;;2.1;;
67344;SDS011;54230;52.402;6.276;2023-06-26T22:15:00;8.4;;;2.2;;
67344;SDS011;54230;52.402;6.276;2023-06-26T22:20:00;6.3;;;2.2;;
67344;SDS011;54230;52.402;6.276;2023-06-26T22:25:00;6.2;;;2.2;;
67344;SDS011;54230;52.402;6.276;2023-06-26T22:30:00;5.7;;;2.5;;
67344;SDS011;54230;52.402;6.276;2023-06-26T22:35:00;5.4;;;2.5;;
67344;SDS011;54230;52.402;6.276;2023-06-26T22:40:00;6.3;;;2.7;;
67344;SDS011;54230;52.402;6.276;2023-06-26T22:45:01;5.0;;;2.4;;
67344;SDS011;54230;52.402;6.276;2023-06-26T22:50:00;6.7;;;2.6;;
67344;SDS011;54230;52.402;6.276;2023-06-26T22:55:00;10.4;;;2.6;;
67344;SDS011;54230;52.402;6.276;2023-06-26T23:00:00;7.4;;;3.5;;
67344;SDS011;54230;52.402;6.276;2023-06-26T23:05:00;10.6;;;4.3;;
67344;SDS011;54230;52.402;6.276;2023-06-26T23:10:00;13.9;;;5.2;;
67344;SDS011;54230;52.402;6.276;2023-06-26T23:15:00;11.7;;;5.4;;
67344;SDS011;54230;52.402;6.276;2023-06-26T23:20:00;12.9;;;5.2;;
67344;SDS011;54230;52.402;6.276;2023-06-26T23:25:00;11.5;;;5.0;;
67344;SDS011;54230;52.402;6.276;2023-06-26T23:30:00;10.3;;;4.9;;
67344;SDS011;54230;52.402;6.276;2023-06-26T23:35:00;10.0;;;4.4;;
67344;SDS011;54230;52.402;6.276;2023-06-26T23:40:00;9.4;;;4.0;;
67344;SDS011;54230;52.402;6.276;2023-06-26T23:45:00;10.2;;;4.2;;
67344;SDS011;54230;52.402;6.276;2023-06-26T23:50:00;7.9;;;3.9;;
67344;SDS011;54230;52.402;6.276;2023-06-26T23:55:00;11.2;;;4.1;;
